createdAt,value
2023-02-08T00:02:14.172Z,101314.64
2023-02-08T00:04:43.280Z,101314.23
2023-02-08T00:07:12.057Z,101315.76
2023-02-08T00:09:41.100Z,101321.83
2023-02-08T00:12:11.576Z,101322.02
2023-02-08T00:14:41.701Z,101325.89
2023-02-08T00:17:10.488Z,101325.42
2023-02-08T00:19:39.475Z,101326.42
2023-02-08T00:22:08.574Z,101326.95
2023-02-08T00:24:37.464Z,101325.59
2023-02-08T00:27:06.396Z,101326.20
2023-02-08T00:29:35.448Z,101334.42
2023-02-08T00:32:05.038Z,101332.55
2023-02-08T00:34:35.477Z,101337.23
2023-02-08T00:37:05.550Z,101338.66
2023-02-08T00:39:35.000Z,101340.55
2023-02-08T00:42:04.402Z,101343.23
2023-02-08T00:44:34.645Z,101344.84
2023-02-08T00:47:03.528Z,101345.11
2023-02-08T00:49:32.959Z,101346.95
2023-02-08T00:52:02.138Z,101355.38
2023-02-08T00:54:31.208Z,101358.67
2023-02-08T00:57:00.201Z,101357.14
2023-02-08T00:59:29.296Z,101356.06
2023-02-08T01:01:58.391Z,101356.23
2023-02-08T01:04:27.378Z,101356.81
2023-02-08T01:07:05.088Z,101357.03
2023-02-08T01:09:34.272Z,101353.51
2023-02-08T01:12:03.580Z,101355.99
2023-02-08T01:14:32.800Z,101358.37
2023-02-08T01:17:01.968Z,101360.86
2023-02-08T01:19:31.066Z,101365.63
2023-02-08T01:21:59.853Z,101371.14
2023-02-08T01:24:29.154Z,101379.98
2023-02-08T01:26:59.064Z,101382.54
2023-02-08T01:29:28.224Z,101385.52
2023-02-08T01:31:57.050Z,101389.11
2023-02-08T01:34:26.041Z,101384.55
2023-02-08T01:36:55.032Z,101384.98
2023-02-08T01:39:24.339Z,101387.29
2023-02-08T01:41:53.747Z,101390.50
2023-02-08T01:45:00.412Z,101389.42
2023-02-08T01:47:29.315Z,101396.79
2023-02-08T01:49:58.294Z,101402.16
2023-02-08T01:52:29.231Z,101406.16
2023-02-08T01:55:21.315Z,101402.14
2023-02-08T01:57:53.029Z,101405.00
2023-02-08T02:00:22.678Z,101408.72
2023-02-08T02:02:54.219Z,101410.03
2023-02-08T02:05:23.890Z,101411.55
2023-02-08T02:07:53.323Z,101408.27
2023-02-08T02:10:26.081Z,101412.76
2023-02-08T02:12:55.776Z,101412.80
2023-02-08T02:15:24.878Z,101417.41
2023-02-08T02:17:53.873Z,101419.34
2023-02-08T02:20:47.548Z,101424.55
2023-02-08T02:23:25.105Z,101427.25
2023-02-08T02:26:20.241Z,101435.59
2023-02-08T02:29:07.983Z,101440.73
2023-02-08T02:31:43.760Z,101445.08
2023-02-08T02:34:26.483Z,101443.91
2023-02-08T02:37:20.023Z,101447.23
2023-02-08T02:40:08.153Z,101448.69
2023-02-08T02:43:04.894Z,101451.16
2023-02-08T02:45:35.857Z,101454.84
2023-02-08T02:48:18.036Z,101455.60
2023-02-08T02:50:49.315Z,101460.80
2023-02-08T02:53:59.959Z,101464.67
2023-02-08T02:56:33.053Z,101468.67
2023-02-08T02:59:04.687Z,101474.33
2023-02-08T03:01:34.042Z,101476.08
2023-02-08T03:04:32.519Z,101476.69
2023-02-08T03:07:20.041Z,101481.31
2023-02-08T03:10:07.103Z,101484.23
2023-02-08T03:13:05.324Z,101487.22
2023-02-08T03:16:06.477Z,101492.38
2023-02-08T03:18:54.184Z,101492.63
2023-02-08T03:21:25.943Z,101493.36
2023-02-08T03:24:26.477Z,101488.92
2023-02-08T03:27:18.936Z,101499.98
2023-02-08T03:30:01.733Z,101497.91
2023-02-08T03:32:41.109Z,101498.20
2023-02-08T03:35:24.515Z,101503.11
2023-02-08T03:38:03.945Z,101503.73
2023-02-08T03:40:38.288Z,101507.92
2023-02-08T03:43:28.647Z,101507.79
2023-02-08T03:46:05.823Z,101511.95
2023-02-08T03:48:35.409Z,101510.73
2023-02-08T03:51:04.762Z,101514.70
2023-02-08T03:53:38.557Z,101520.09
2023-02-08T03:56:11.487Z,101520.17
2023-02-08T03:59:02.030Z,101524.52
2023-02-08T04:01:33.845Z,101525.16
2023-02-08T04:04:02.948Z,101524.11
2023-02-08T04:06:32.813Z,101526.77
2023-02-08T04:09:01.898Z,101531.61
2023-02-08T04:11:30.998Z,101537.30
2023-02-08T04:14:00.591Z,101538.19
2023-02-08T04:16:29.370Z,101541.20
2023-02-08T04:18:58.173Z,101543.66
2023-02-08T04:21:27.654Z,101549.29
2023-02-08T04:23:56.355Z,101550.39
2023-02-08T04:26:25.241Z,101557.60
2023-02-08T04:28:54.231Z,101559.34
2023-02-08T04:31:23.024Z,101565.27
2023-02-08T04:33:52.149Z,101571.42
2023-02-08T04:36:21.018Z,101572.64
2023-02-08T04:38:50.615Z,101571.02
2023-02-08T04:41:19.404Z,101577.15
2023-02-08T04:43:48.399Z,101578.73
2023-02-08T04:46:17.288Z,101583.76
2023-02-08T04:48:46.282Z,101581.82
2023-02-08T04:51:15.018Z,101589.09
2023-02-08T04:53:43.801Z,101593.05
2023-02-08T04:56:12.532Z,101595.65
2023-02-08T04:58:42.970Z,101601.15
2023-02-08T05:01:12.076Z,101599.05
2023-02-08T05:03:41.156Z,101600.44
2023-02-08T05:06:09.944Z,101603.52
2023-02-08T05:08:39.250Z,101608.45
2023-02-08T05:11:08.444Z,101613.27
2023-02-08T05:13:37.565Z,101617.44
2023-02-08T05:16:07.344Z,101615.77
2023-02-08T05:18:38.391Z,101620.13
2023-02-08T05:21:07.482Z,101625.30
2023-02-08T05:23:36.886Z,101632.10
2023-02-08T05:26:07.322Z,101637.92
2023-02-08T05:28:36.331Z,101634.42
2023-02-08T05:31:11.445Z,101633.45
2023-02-08T05:33:40.233Z,101628.79
2023-02-08T05:36:09.421Z,101626.95
2023-02-08T05:38:38.621Z,101626.77
2023-02-08T05:41:07.632Z,101628.42
2023-02-08T05:43:36.584Z,101631.02
2023-02-08T05:46:05.613Z,101633.20
2023-02-08T05:48:34.416Z,101629.47
2023-02-08T05:51:03.406Z,101634.15
2023-02-08T05:53:32.475Z,101636.44
2023-02-08T05:56:01.598Z,101633.66
2023-02-08T05:58:30.764Z,101643.46
2023-02-08T06:00:59.682Z,101648.05
2023-02-08T06:03:28.771Z,101644.21
2023-02-08T06:06:01.134Z,101646.19
2023-02-08T06:08:30.019Z,101651.13
2023-02-08T06:10:59.103Z,101646.82
2023-02-08T06:13:29.507Z,101646.84
2023-02-08T06:15:58.664Z,101653.27
2023-02-08T06:18:27.616Z,101643.83
2023-02-08T06:20:56.811Z,101650.09
2023-02-08T06:23:25.807Z,101652.34
2023-02-08T06:25:54.821Z,101655.14
2023-02-08T06:28:24.144Z,101659.14
2023-02-08T06:30:54.421Z,101661.17
2023-02-08T06:33:23.639Z,101662.61
2023-02-08T06:35:53.549Z,101659.95
2023-02-08T06:38:23.494Z,101663.11
2023-02-08T06:40:53.298Z,101670.84
2023-02-08T06:43:22.363Z,101671.94
2023-02-08T06:45:51.072Z,101675.42
2023-02-08T06:48:20.855Z,101678.71
2023-02-08T06:50:52.408Z,101681.20
2023-02-08T06:53:22.010Z,101692.84
2023-02-08T06:55:51.003Z,101694.75
2023-02-08T06:58:20.656Z,101693.94
2023-02-08T07:00:51.331Z,101697.66
2023-02-08T07:03:20.645Z,101704.04
2023-02-08T07:06:03.824Z,101692.82
2023-02-08T07:08:34.216Z,101696.95
2023-02-08T07:11:12.924Z,101696.52
2023-02-08T07:13:42.131Z,101700.77
2023-02-08T07:16:10.673Z,101705.50
2023-02-08T07:18:40.208Z,101706.86
2023-02-08T07:21:08.887Z,101705.77
2023-02-08T07:23:39.046Z,101703.94
2023-02-08T07:26:10.090Z,101710.48
2023-02-08T07:28:39.247Z,101711.51
2023-02-08T07:31:13.070Z,101721.51
2023-02-08T07:33:41.843Z,101722.31
2023-02-08T07:36:11.067Z,101725.24
2023-02-08T07:38:39.659Z,101728.61
2023-02-08T07:41:10.259Z,101726.13
2023-02-08T07:43:39.566Z,101727.38
2023-02-08T07:46:09.178Z,101730.25
2023-02-08T07:48:40.165Z,101732.11
2023-02-08T07:51:10.246Z,101731.97
2023-02-08T07:53:39.461Z,101740.02
2023-02-08T07:56:08.208Z,101739.21
2023-02-08T07:58:38.082Z,101737.48
2023-02-08T08:01:20.989Z,101734.30
2023-02-08T08:03:51.340Z,101737.52
2023-02-08T08:06:20.875Z,101739.95
2023-02-08T08:08:51.004Z,101737.87
2023-02-08T08:11:20.407Z,101744.20
2023-02-08T08:13:50.645Z,101749.14
2023-02-08T08:16:19.418Z,101746.19
2023-02-08T08:18:49.634Z,101743.79
2023-02-08T08:21:18.712Z,101740.49
2023-02-08T08:23:47.499Z,101747.02
2023-02-08T08:26:18.542Z,101749.89
2023-02-08T08:28:47.306Z,101759.02
2023-02-08T08:31:18.889Z,101763.92
2023-02-08T08:33:47.777Z,101761.75
2023-02-08T08:36:17.141Z,101769.42
2023-02-08T08:38:46.287Z,101772.27
2023-02-08T08:41:17.434Z,101772.52
2023-02-08T08:43:46.429Z,101770.70
2023-02-08T08:46:16.932Z,101778.93
2023-02-08T08:48:46.334Z,101780.30
2023-02-08T08:51:15.239Z,101783.56
2023-02-08T08:53:43.608Z,101776.40
2023-02-08T08:56:12.404Z,101777.16
2023-02-08T08:58:41.178Z,101777.77
2023-02-08T09:01:09.771Z,101780.98
2023-02-08T09:03:38.843Z,101777.71
2023-02-08T09:06:07.991Z,101777.86
2023-02-08T09:08:37.146Z,101771.67
2023-02-08T09:11:15.973Z,101771.15
2023-02-08T09:13:44.456Z,101770.29
2023-02-08T09:16:14.889Z,101772.86
2023-02-08T09:18:44.276Z,101773.76
2023-02-08T09:22:19.094Z,101774.41
2023-02-08T09:24:49.128Z,101773.98
2023-02-08T09:27:19.326Z,101776.80
2023-02-08T09:29:48.846Z,101782.93
2023-02-08T09:32:18.093Z,101780.66
2023-02-08T09:34:47.259Z,101778.00
2023-02-08T09:37:18.500Z,101771.03
2023-02-08T09:39:47.783Z,101768.71
2023-02-08T09:42:40.643Z,101772.23
2023-02-08T09:45:24.492Z,101769.71
2023-02-08T09:48:14.671Z,101774.68
2023-02-08T09:50:47.233Z,101775.33
2023-02-08T09:53:26.113Z,101777.79
2023-02-08T09:56:05.696Z,101775.48
2023-02-08T09:58:34.537Z,101774.66
2023-02-08T10:01:07.699Z,101776.73
2023-02-08T10:03:38.712Z,101772.89
2023-02-08T10:06:09.765Z,101768.99
2023-02-08T10:08:38.657Z,101766.27
2023-02-08T10:11:40.106Z,101763.89
2023-02-08T10:14:21.829Z,101768.12
2023-02-08T10:17:21.318Z,101760.67
2023-02-08T10:19:52.961Z,101759.27
2023-02-08T10:22:25.031Z,101760.41
2023-02-08T10:24:56.583Z,101760.19
2023-02-08T10:27:37.985Z,101760.51
2023-02-08T10:30:28.532Z,101764.63
2023-02-08T10:33:02.483Z,101762.18
2023-02-08T10:35:50.770Z,101758.23
2023-02-08T10:38:19.610Z,101748.67
2023-02-08T10:40:52.501Z,101753.30
2023-02-08T10:43:37.355Z,101751.52
2023-02-08T10:46:08.832Z,101751.77
2023-02-08T10:49:09.953Z,101750.80
2023-02-08T10:51:39.565Z,101747.17
2023-02-08T10:54:14.955Z,101746.96
2023-02-08T10:56:46.908Z,101748.82
2023-02-08T10:59:22.476Z,101743.85
2023-02-08T11:01:51.730Z,101747.16
2023-02-08T11:04:20.710Z,101739.75
2023-02-08T11:06:50.637Z,101734.45
2023-02-08T11:09:31.019Z,101743.41
2023-02-08T11:12:03.644Z,101743.09
2023-02-08T11:14:46.904Z,101741.20
2023-02-08T11:17:30.488Z,101742.73
2023-02-08T11:19:59.743Z,101736.27
2023-02-08T11:22:31.545Z,101731.34
2023-02-08T11:25:02.440Z,101731.54
2023-02-08T11:27:33.143Z,101731.06
2023-02-08T11:30:15.037Z,101729.98
2023-02-08T11:32:44.335Z,101726.75
2023-02-08T11:35:26.549Z,101719.31
2023-02-08T11:37:57.082Z,101721.24
2023-02-08T11:40:38.360Z,101725.16
2023-02-08T11:43:08.257Z,101723.65
2023-02-08T11:45:37.467Z,101722.16
2023-02-08T11:48:06.560Z,101725.77
2023-02-08T11:50:37.208Z,101723.00
2023-02-08T11:53:21.598Z,101725.17
2023-02-08T11:56:19.914Z,101724.18
2023-02-08T11:59:16.455Z,101725.27
2023-02-08T12:01:45.447Z,101725.39
2023-02-08T12:04:15.483Z,101730.95
2023-02-08T12:06:56.561Z,101737.36
2023-02-08T12:09:28.081Z,101737.00
2023-02-08T12:12:17.985Z,101733.78
2023-02-08T12:14:55.694Z,101739.71
2023-02-08T12:17:40.438Z,101742.98
2023-02-08T12:20:19.145Z,101743.52
2023-02-08T12:22:57.876Z,101748.27
2023-02-08T12:25:33.165Z,101746.73
2023-02-08T12:28:48.103Z,101748.03
2023-02-08T12:35:50.948Z,101751.20
2023-02-08T12:39:19.408Z,101754.22
2023-02-08T12:42:13.663Z,101755.09
2023-02-08T12:45:02.058Z,101756.37
2023-02-08T12:47:49.263Z,101759.13
2023-02-08T12:51:04.846Z,101761.84
2023-02-08T12:53:38.209Z,101762.21
2023-02-08T12:56:11.744Z,101761.11
2023-02-08T12:58:46.456Z,101762.77
2023-02-08T13:01:23.350Z,101761.50
2023-02-08T13:04:26.711Z,101767.34
2023-02-08T13:06:59.973Z,101769.02
2023-02-08T13:09:35.868Z,101770.77
2023-02-08T13:12:09.213Z,101771.66
2023-02-08T13:14:50.331Z,101771.05
2023-02-08T13:17:30.921Z,101774.14
2023-02-08T13:20:05.716Z,101771.08
2023-02-08T13:22:39.764Z,101772.34
2023-02-08T13:25:15.640Z,101766.58
2023-02-08T13:27:44.578Z,101769.30
2023-02-08T13:30:21.054Z,101774.88
2023-02-08T13:32:51.176Z,101772.58
2023-02-08T13:35:28.576Z,101783.58
2023-02-08T13:38:08.302Z,101787.84
2023-02-08T13:40:37.503Z,101791.60
2023-02-08T13:43:34.307Z,101789.64
2023-02-08T13:46:04.502Z,101785.58
2023-02-08T13:48:43.609Z,101782.73
2023-02-08T13:51:31.443Z,101783.55
2023-02-08T13:54:01.594Z,101790.59
2023-02-08T13:56:50.825Z,101799.69
2023-02-08T13:59:34.290Z,101797.75
2023-02-08T14:02:12.174Z,101802.71
2023-02-08T14:04:42.742Z,101807.94
2023-02-08T14:07:12.095Z,101812.19
2023-02-08T14:09:54.798Z,101811.11
2023-02-08T14:12:43.863Z,101818.34
2023-02-08T14:15:17.569Z,101815.27
2023-02-08T14:17:51.473Z,101819.84
2023-02-08T14:20:21.902Z,101812.77
2023-02-08T14:22:52.664Z,101817.89
2023-02-08T14:25:30.244Z,101820.34
2023-02-08T14:28:00.651Z,101818.63
2023-02-08T14:30:31.986Z,101819.23
2023-02-08T14:33:05.390Z,101821.02
2023-02-08T14:35:40.526Z,101824.21
2023-02-08T14:38:24.472Z,101830.13
2023-02-08T14:40:55.111Z,101836.52
2023-02-08T14:43:40.949Z,101840.14
2023-02-08T14:46:38.116Z,101842.67
2023-02-08T14:49:17.386Z,101841.99
2023-02-08T14:51:50.699Z,101847.27
2023-02-08T14:54:57.987Z,101843.92
2023-02-08T14:57:37.500Z,101839.80
2023-02-08T15:00:08.858Z,101837.77
2023-02-08T15:02:37.595Z,101840.02
2023-02-08T15:05:46.875Z,101841.81
2023-02-08T15:08:20.711Z,101846.94
2023-02-08T15:10:49.381Z,101854.98
2023-02-08T15:13:33.423Z,101854.27
2023-02-08T15:17:18.014Z,101854.21
2023-02-08T15:19:47.069Z,101855.53
2023-02-08T15:22:37.372Z,101855.67
2023-02-08T15:25:29.000Z,101857.33
2023-02-08T15:28:00.286Z,101856.63
2023-02-08T15:30:38.056Z,101860.64
2023-02-08T15:33:14.902Z,101859.37
2023-02-08T15:35:44.202Z,101856.92
2023-02-08T15:38:19.720Z,101861.16
2023-02-08T15:41:06.952Z,101863.55
2023-02-08T15:43:37.042Z,101863.27
2023-02-08T15:46:16.599Z,101869.65
2023-02-08T15:48:46.333Z,101862.45
2023-02-08T15:51:16.545Z,101867.85
2023-02-08T15:53:46.577Z,101869.50
2023-02-08T15:56:24.049Z,101870.70
2023-02-08T15:59:03.509Z,101873.60
2023-02-08T16:01:34.241Z,101876.54
2023-02-08T16:04:06.224Z,101878.27
2023-02-08T16:06:39.766Z,101877.42
2023-02-08T16:09:15.835Z,101875.58
2023-02-08T16:11:49.330Z,101873.20
2023-02-08T16:14:24.206Z,101870.91
2023-02-08T16:16:57.655Z,101878.43
2023-02-08T16:19:32.811Z,101881.56
2023-02-08T16:22:35.799Z,101885.22
2023-02-08T16:25:45.469Z,101878.59
2023-02-08T16:28:32.485Z,101881.73
2023-02-08T16:31:03.307Z,101885.20
2023-02-08T16:33:33.250Z,101886.80
2023-02-08T16:36:02.365Z,101883.65
2023-02-08T16:38:34.134Z,101881.89
2023-02-08T16:41:12.659Z,101878.80
2023-02-08T16:43:44.221Z,101877.86
2023-02-08T16:46:18.240Z,101873.66
2023-02-08T16:48:51.860Z,101870.09
2023-02-08T16:51:27.552Z,101878.42
2023-02-08T16:54:07.891Z,101875.89
2023-02-08T16:56:37.683Z,101876.07
2023-02-08T16:59:06.158Z,101876.41
2023-02-08T17:02:19.089Z,101879.02
2023-02-08T17:04:51.700Z,101882.61
2023-02-08T17:07:20.692Z,101880.48
2023-02-08T17:09:50.677Z,101880.30
2023-02-08T17:12:22.724Z,101880.36
2023-02-08T17:14:52.668Z,101877.38
2023-02-08T17:17:22.182Z,101878.55
2023-02-08T17:19:52.189Z,101873.51
2023-02-08T17:22:21.371Z,101870.67
2023-02-08T17:28:41.018Z,101862.89
2023-02-08T17:31:12.127Z,101860.30
2023-02-08T17:33:41.719Z,101855.06
2023-02-08T17:36:11.632Z,101854.45
2023-02-08T17:39:02.025Z,101860.04
2023-02-08T17:41:40.442Z,101864.36
2023-02-08T17:44:11.331Z,101872.89
2023-02-08T17:46:40.374Z,101870.20
2023-02-08T17:49:09.769Z,101876.15
2023-02-08T17:51:38.051Z,101873.63
2023-02-08T17:54:07.052Z,101875.95
2023-02-08T17:56:36.750Z,101879.27
2023-02-08T17:59:06.366Z,101877.77
2023-02-08T18:01:36.086Z,101883.05
2023-02-08T18:04:04.959Z,101889.78
2023-02-08T18:06:34.866Z,101897.59
2023-02-08T18:09:03.763Z,101898.60
2023-02-08T18:11:33.984Z,101894.23
2023-02-08T18:14:03.194Z,101897.28
2023-02-08T18:16:36.378Z,101897.95
2023-02-08T18:19:05.883Z,101901.93
2023-02-08T18:21:35.160Z,101900.30
2023-02-08T18:24:06.370Z,101901.25
2023-02-08T18:26:36.981Z,101898.65
2023-02-08T18:29:06.277Z,101903.83
2023-02-08T18:31:35.841Z,101902.01
2023-02-08T18:34:05.253Z,101901.08
2023-02-08T18:36:34.549Z,101900.88
2023-02-08T18:39:03.753Z,101902.05
2023-02-08T18:41:32.843Z,101900.55
2023-02-08T18:44:03.481Z,101901.86
2023-02-08T18:46:32.480Z,101901.55
2023-02-08T18:49:01.251Z,101904.88
2023-02-08T18:51:32.196Z,101910.61
2023-02-08T18:54:01.520Z,101910.58
2023-02-08T18:56:32.793Z,101903.62
2023-02-08T18:59:01.834Z,101900.27
2023-02-08T19:01:31.182Z,101897.54
2023-02-08T19:04:00.757Z,101898.33
2023-02-08T19:06:31.932Z,101899.90
2023-02-08T19:09:03.010Z,101900.46
2023-02-08T19:11:37.376Z,101901.26
2023-02-08T19:14:09.280Z,101902.43
2023-02-08T19:16:38.740Z,101902.20
2023-02-08T19:19:08.041Z,101900.25
2023-02-08T19:21:38.547Z,101899.02
2023-02-08T19:24:07.871Z,101893.20
2023-02-08T19:26:40.158Z,101895.23
2023-02-08T19:29:11.656Z,101895.95
2023-02-08T19:31:41.013Z,101891.63
2023-02-08T19:34:11.189Z,101888.83
2023-02-08T19:36:46.746Z,101887.65
2023-02-08T19:39:17.196Z,101892.52
2023-02-08T19:41:46.878Z,101893.15
2023-02-08T19:44:18.301Z,101893.05
2023-02-08T19:46:48.533Z,101899.95
2023-02-08T19:49:17.759Z,101904.35
2023-02-08T19:51:46.850Z,101908.64
2023-02-08T19:54:18.808Z,101905.13
2023-02-08T19:56:47.581Z,101905.70
2023-02-08T19:59:18.897Z,101901.70
2023-02-08T20:01:48.342Z,101894.36
2023-02-08T20:04:18.041Z,101890.91
2023-02-08T20:06:47.266Z,101889.60
2023-02-08T20:09:17.259Z,101888.34
2023-02-08T20:12:01.462Z,101887.14
2023-02-08T20:14:33.288Z,101887.12
2023-02-08T20:17:02.802Z,101888.77
2023-02-08T20:19:31.970Z,101891.30
2023-02-08T20:22:01.163Z,101889.05
2023-02-08T20:24:30.678Z,101888.89
2023-02-08T20:27:00.274Z,101887.41
2023-02-08T20:29:29.671Z,101882.23
2023-02-08T20:32:09.526Z,101879.66
2023-02-08T20:34:40.958Z,101882.34
2023-02-08T20:37:20.938Z,101878.88
2023-02-08T20:39:50.220Z,101878.89
2023-02-08T20:42:19.414Z,101872.27
2023-02-08T20:44:48.719Z,101872.45
2023-02-08T20:47:22.523Z,101869.80
2023-02-08T20:49:51.827Z,101872.07
2023-02-08T20:52:21.127Z,101871.05
2023-02-08T20:54:50.833Z,101871.99
2023-02-08T20:57:20.026Z,101869.23
2023-02-08T20:59:50.826Z,101868.59
2023-02-08T21:02:23.785Z,101873.06
2023-02-08T21:04:52.657Z,101875.21
2023-02-08T21:07:21.537Z,101869.52
2023-02-08T21:09:50.345Z,101869.30
2023-02-08T21:12:19.421Z,101877.20
2023-02-08T21:14:49.016Z,101875.56
2023-02-08T21:17:19.148Z,101880.70
2023-02-08T21:19:48.027Z,101873.80
2023-02-08T21:22:17.721Z,101873.14
2023-02-08T21:24:46.733Z,101869.76
2023-02-08T21:27:16.072Z,101867.50
2023-02-08T21:29:45.535Z,101863.11
2023-02-08T21:32:14.140Z,101859.43
2023-02-08T21:34:43.308Z,101861.20
2023-02-08T21:37:12.201Z,101859.48
2023-02-08T21:39:41.407Z,101855.05
2023-02-08T21:42:10.350Z,101859.31
2023-02-08T21:44:39.994Z,101860.13
2023-02-08T21:47:09.192Z,101859.27
2023-02-08T21:49:56.616Z,101858.05
2023-02-08T21:52:44.251Z,101854.54
2023-02-08T21:55:13.242Z,101854.54
2023-02-08T21:57:43.536Z,101855.45
2023-02-08T22:00:13.302Z,101855.41
2023-02-08T22:02:42.402Z,101851.29
2023-02-08T22:05:11.844Z,101846.08
2023-02-08T22:07:49.076Z,101839.82
2023-02-08T22:10:19.922Z,101838.63
2023-02-08T22:12:49.353Z,101837.70
2023-02-08T22:15:19.513Z,101836.00
2023-02-08T22:17:48.538Z,101831.54
2023-02-08T22:20:18.932Z,101831.55
2023-02-08T22:22:47.925Z,101828.77
2023-02-08T22:25:17.020Z,101821.45
2023-02-08T22:27:46.528Z,101820.52
2023-02-08T22:30:16.665Z,101818.04
2023-02-08T22:32:46.970Z,101812.20
2023-02-08T22:35:16.850Z,101805.85
2023-02-08T22:37:45.711Z,101805.33
2023-02-08T22:40:14.784Z,101802.92
2023-02-08T22:42:44.176Z,101803.10
2023-02-08T22:45:13.485Z,101800.04
2023-02-08T22:47:42.781Z,101795.87
2023-02-08T22:50:12.585Z,101787.81
2023-02-08T22:52:41.708Z,101788.79
2023-02-08T22:55:10.679Z,101790.52
2023-02-08T22:57:39.496Z,101795.48
2023-02-08T23:00:09.274Z,101793.61
2023-02-08T23:02:38.778Z,101798.55
2023-02-08T23:05:08.288Z,101791.61
2023-02-08T23:07:38.144Z,101796.86
2023-02-08T23:10:10.360Z,101793.10
2023-02-08T23:12:40.210Z,101802.60
2023-02-08T23:15:10.862Z,101800.23
2023-02-08T23:17:40.107Z,101793.58
2023-02-08T23:20:09.656Z,101796.14
2023-02-08T23:22:40.342Z,101796.94
2023-02-08T23:25:09.036Z,101794.90
2023-02-08T23:27:37.830Z,101790.77
2023-02-08T23:30:09.501Z,101794.64
2023-02-08T23:32:38.791Z,101796.02
2023-02-08T23:35:08.995Z,101793.55
2023-02-08T23:37:38.083Z,101792.48
2023-02-08T23:40:07.381Z,101791.42
2023-02-08T23:42:36.489Z,101786.10
2023-02-08T23:45:05.509Z,101785.27
2023-02-08T23:47:34.889Z,101787.06
2023-02-08T23:50:03.559Z,101786.47
2023-02-08T23:52:33.815Z,101786.52
2023-02-08T23:55:02.368Z,101793.88
2023-02-08T23:57:35.061Z,101794.40
